sensor_id;sensor_type;location;lat;lon;timestamp;temperature;humidity
6956;DHT22;50345;51.136;16.886;2024-01-30T00:00:46;1.80;99.90
6956;DHT22;50345;51.136;16.886;2024-01-30T00:03:11;1.80;99.90
6956;DHT22;50345;51.136;16.886;2024-01-30T00:05:37;1.80;99.90
6956;DHT22;50345;51.136;16.886;2024-01-30T00:08:03;1.80;99.90
6956;DHT22;50345;51.136;16.886;2024-01-30T00:10:28;1.80;99.90
6956;DHT22;50345;51.136;16.886;2024-01-30T00:12:54;1.80;99.90
6956;DHT22;50345;51.136;16.886;2024-01-30T00:15:20;1.80;99.90
6956;DHT22;50345;51.136;16.886;2024-01-30T00:17:45;1.70;99.90
6956;DHT22;50345;51.136;16.886;2024-01-30T00:20:11;1.70;99.90
6956;DHT22;50345;51.136;16.886;2024-01-30T00:22:36;1.60;99.90
6956;DHT22;50345;51.136;16.886;2024-01-30T00:25:02;1.60;99.90
6956;DHT22;50345;51.136;16.886;2024-01-30T00:27:27;1.60;99.90
6956;DHT22;50345;51.136;16.886;2024-01-30T00:29:53;1.50;99.90
6956;DHT22;50345;51.136;16.886;2024-01-30T00:32:19;1.50;99.90
6956;DHT22;50345;51.136;16.886;2024-01-30T00:34:44;1.40;99.90
6956;DHT22;50345;51.136;16.886;2024-01-30T00:37:10;1.40;99.90
6956;DHT22;50345;51.136;16.886;2024-01-30T00:39:36;1.40;99.90
6956;DHT22;50345;51.136;16.886;2024-01-30T00:42:01;1.40;99.90
6956;DHT22;50345;51.136;16.886;2024-01-30T00:44:27;1.30;99.90
6956;DHT22;50345;51.136;16.886;2024-01-30T00:46:53;1.30;99.90
6956;DHT22;50345;51.136;16.886;2024-01-30T00:49:19;1.30;99.90
6956;DHT22;50345;51.136;16.886;2024-01-30T00:51:44;1.30;99.90
6956;DHT22;50345;51.136;16.886;2024-01-30T00:54:10;1.30;99.90
6956;DHT22;50345;51.136;16.886;2024-01-30T00:56:35;1.30;99.90
6956;DHT22;50345;51.136;16.886;2024-01-30T00:59:01;1.30;99.90
6956;DHT22;50345;51.136;16.886;2024-01-30T01:01:26;1.20;99.90
6956;DHT22;50345;51.136;16.886;2024-01-30T01:03:52;1.20;99.90
6956;DHT22;50345;51.136;16.886;2024-01-30T01:06:17;1.20;99.90
6956;DHT22;50345;51.136;16.886;2024-01-30T01:08:43;1.20;99.90
6956;DHT22;50345;51.136;16.886;2024-01-30T01:11:09;1.20;99.90
6956;DHT22;50345;51.136;16.886;2024-01-30T01:13:34;1.20;99.90
6956;DHT22;50345;51.136;16.886;2024-01-30T01:16:00;1.20;99.90
6956;DHT22;50345;51.136;16.886;2024-01-30T01:18:25;1.20;99.90
6956;DHT22;50345;51.136;16.886;2024-01-30T01:20:52;1.20;99.90
6956;DHT22;50345;51.136;16.886;2024-01-30T01:23:18;1.10;99.90
6956;DHT22;50345;51.136;16.886;2024-01-30T01:25:44;1.10;99.90
6956;DHT22;50345;51.136;16.886;2024-01-30T01:28:09;1.10;99.90
6956;DHT22;50345;51.136;16.886;2024-01-30T01:30:35;1.10;99.90
6956;DHT22;50345;51.136;16.886;2024-01-30T01:33:00;1.00;99.90
6956;DHT22;50345;51.136;16.886;2024-01-30T01:35:27;1.00;99.90
6956;DHT22;50345;51.136;16.886;2024-01-30T01:37:54;0.90;99.90
6956;DHT22;50345;51.136;16.886;2024-01-30T01:40:25;0.90;99.90
6956;DHT22;50345;51.136;16.886;2024-01-30T01:42:52;0.90;99.90
6956;DHT22;50345;51.136;16.886;2024-01-30T01:45:18;0.90;99.90
6956;DHT22;50345;51.136;16.886;2024-01-30T01:47:46;0.90;99.90
6956;DHT22;50345;51.136;16.886;2024-01-30T01:50:13;0.90;99.90
6956;DHT22;50345;51.136;16.886;2024-01-30T01:52:40;0.80;99.90
6956;DHT22;50345;51.136;16.886;2024-01-30T01:55:07;0.80;99.90
6956;DHT22;50345;51.136;16.886;2024-01-30T01:57:33;0.90;99.90
6956;DHT22;50345;51.136;16.886;2024-01-30T02:00:00;0.90;99.90
6956;DHT22;50345;51.136;16.886;2024-01-30T02:02:26;0.90;99.90
6956;DHT22;50345;51.136;16.886;2024-01-30T02:04:54;0.90;99.90
6956;DHT22;50345;51.136;16.886;2024-01-30T02:07:20;0.90;99.90
6956;DHT22;50345;51.136;16.886;2024-01-30T02:09:46;0.90;99.90
6956;DHT22;50345;51.136;16.886;2024-01-30T02:12:11;0.90;99.90
6956;DHT22;50345;51.136;16.886;2024-01-30T02:14:50;0.90;99.90
6956;DHT22;50345;51.136;16.886;2024-01-30T02:17:16;0.90;99.90
6956;DHT22;50345;51.136;16.886;2024-01-30T02:19:42;0.90;99.90
6956;DHT22;50345;51.136;16.886;2024-01-30T02:22:08;0.90;99.90
6956;DHT22;50345;51.136;16.886;2024-01-30T02:24:34;0.90;99.90
6956;DHT22;50345;51.136;16.886;2024-01-30T02:27:00;0.90;99.90
6956;DHT22;50345;51.136;16.886;2024-01-30T02:29:25;0.90;99.90
6956;DHT22;50345;51.136;16.886;2024-01-30T02:31:51;0.90;99.90
6956;DHT22;50345;51.136;16.886;2024-01-30T02:34:18;0.90;99.90
6956;DHT22;50345;51.136;16.886;2024-01-30T02:36:44;0.90;99.90
6956;DHT22;50345;51.136;16.886;2024-01-30T02:39:10;0.90;99.90
6956;DHT22;50345;51.136;16.886;2024-01-30T02:41:36;0.90;99.90
6956;DHT22;50345;51.136;16.886;2024-01-30T02:44:02;0.80;99.90
6956;DHT22;50345;51.136;16.886;2024-01-30T02:46:28;0.80;99.90
6956;DHT22;50345;51.136;16.886;2024-01-30T02:48:54;0.80;99.90
6956;DHT22;50345;51.136;16.886;2024-01-30T02:51:19;0.80;99.90
6956;DHT22;50345;51.136;16.886;2024-01-30T02:53:45;0.80;99.90
6956;DHT22;50345;51.136;16.886;2024-01-30T02:56:10;0.70;99.90
6956;DHT22;50345;51.136;16.886;2024-01-30T02:58:36;0.60;99.90
6956;DHT22;50345;51.136;16.886;2024-01-30T03:01:02;0.70;99.90
6956;DHT22;50345;51.136;16.886;2024-01-30T03:03:28;0.70;99.90
6956;DHT22;50345;51.136;16.886;2024-01-30T03:05:54;0.70;99.90
6956;DHT22;50345;51.136;16.886;2024-01-30T03:08:19;0.70;99.90
6956;DHT22;50345;51.136;16.886;2024-01-30T03:10:46;0.60;99.90
6956;DHT22;50345;51.136;16.886;2024-01-30T03:13:11;0.50;99.90
6956;DHT22;50345;51.136;16.886;2024-01-30T03:15:37;0.50;99.90
6956;DHT22;50345;51.136;16.886;2024-01-30T03:18:03;0.50;99.90
6956;DHT22;50345;51.136;16.886;2024-01-30T03:20:31;0.50;99.90
6956;DHT22;50345;51.136;16.886;2024-01-30T03:22:57;0.50;99.90
6956;DHT22;50345;51.136;16.886;2024-01-30T03:25:24;0.50;99.90
6956;DHT22;50345;51.136;16.886;2024-01-30T03:27:50;0.50;99.90
6956;DHT22;50345;51.136;16.886;2024-01-30T03:30:15;0.60;99.90
6956;DHT22;50345;51.136;16.886;2024-01-30T03:32:41;0.50;99.90
6956;DHT22;50345;51.136;16.886;2024-01-30T03:35:07;0.50;99.90
6956;DHT22;50345;51.136;16.886;2024-01-30T03:37:32;0.50;99.90
6956;DHT22;50345;51.136;16.886;2024-01-30T03:39:58;0.50;99.90
6956;DHT22;50345;51.136;16.886;2024-01-30T03:42:23;0.50;99.90
6956;DHT22;50345;51.136;16.886;2024-01-30T03:44:49;0.40;99.90
6956;DHT22;50345;51.136;16.886;2024-01-30T03:47:18;0.40;99.90
6956;DHT22;50345;51.136;16.886;2024-01-30T03:49:44;0.40;99.90
6956;DHT22;50345;51.136;16.886;2024-01-30T03:52:10;0.30;99.90
6956;DHT22;50345;51.136;16.886;2024-01-30T03:54:35;0.30;99.90
6956;DHT22;50345;51.136;16.886;2024-01-30T03:57:01;0.30;99.90
6956;DHT22;50345;51.136;16.886;2024-01-30T03:59:27;0.20;99.90
6956;DHT22;50345;51.136;16.886;2024-01-30T04:01:54;0.20;99.90
6956;DHT22;50345;51.136;16.886;2024-01-30T04:04:20;0.20;99.90
6956;DHT22;50345;51.136;16.886;2024-01-30T04:06:46;0.20;99.90
6956;DHT22;50345;51.136;16.886;2024-01-30T04:09:12;0.20;99.90
6956;DHT22;50345;51.136;16.886;2024-01-30T04:11:39;0.20;99.90
6956;DHT22;50345;51.136;16.886;2024-01-30T04:14:05;0.20;99.90
6956;DHT22;50345;51.136;16.886;2024-01-30T04:16:30;0.20;99.90
6956;DHT22;50345;51.136;16.886;2024-01-30T04:18:56;0.10;99.90
6956;DHT22;50345;51.136;16.886;2024-01-30T04:21:22;0.20;99.90
6956;DHT22;50345;51.136;16.886;2024-01-30T04:23:48;0.10;99.90
6956;DHT22;50345;51.136;16.886;2024-01-30T04:26:14;0.20;99.90
6956;DHT22;50345;51.136;16.886;2024-01-30T04:28:41;0.10;99.90
6956;DHT22;50345;51.136;16.886;2024-01-30T04:31:07;0.20;99.90
6956;DHT22;50345;51.136;16.886;2024-01-30T04:33:33;0.10;99.90
6956;DHT22;50345;51.136;16.886;2024-01-30T04:35:58;0.10;99.90
6956;DHT22;50345;51.136;16.886;2024-01-30T04:38:24;0.20;99.90
6956;DHT22;50345;51.136;16.886;2024-01-30T04:40:49;0.10;99.90
6956;DHT22;50345;51.136;16.886;2024-01-30T04:43:15;0.10;99.90
6956;DHT22;50345;51.136;16.886;2024-01-30T04:45:41;0.00;99.90
6956;DHT22;50345;51.136;16.886;2024-01-30T04:48:07;0.00;99.90
6956;DHT22;50345;51.136;16.886;2024-01-30T04:50:32;0.00;99.90
6956;DHT22;50345;51.136;16.886;2024-01-30T04:52:58;0.00;99.90
6956;DHT22;50345;51.136;16.886;2024-01-30T04:55:24;0.00;99.90
6956;DHT22;50345;51.136;16.886;2024-01-30T04:57:49;-0.10;99.90
6956;DHT22;50345;51.136;16.886;2024-01-30T05:00:15;-0.10;99.90
6956;DHT22;50345;51.136;16.886;2024-01-30T05:02:41;-0.10;99.90
6956;DHT22;50345;51.136;16.886;2024-01-30T05:05:06;-0.10;99.90
6956;DHT22;50345;51.136;16.886;2024-01-30T05:07:33;-0.10;99.90
6956;DHT22;50345;51.136;16.886;2024-01-30T05:09:58;-0.10;99.90
6956;DHT22;50345;51.136;16.886;2024-01-30T05:12:24;-0.10;99.90
6956;DHT22;50345;51.136;16.886;2024-01-30T05:14:50;-0.10;99.90
6956;DHT22;50345;51.136;16.886;2024-01-30T05:17:15;-0.10;99.90
6956;DHT22;50345;51.136;16.886;2024-01-30T05:19:41;-0.10;99.90
6956;DHT22;50345;51.136;16.886;2024-01-30T05:22:06;-0.10;99.90
6956;DHT22;50345;51.136;16.886;2024-01-30T05:24:32;-0.10;99.90
6956;DHT22;50345;51.136;16.886;2024-01-30T05:26:58;-0.10;99.90
6956;DHT22;50345;51.136;16.886;2024-01-30T05:29:24;-0.10;99.90
6956;DHT22;50345;51.136;16.886;2024-01-30T05:31:49;-0.10;99.90
6956;DHT22;50345;51.136;16.886;2024-01-30T05:34:15;-0.10;99.90
6956;DHT22;50345;51.136;16.886;2024-01-30T05:36:41;-0.10;99.90
6956;DHT22;50345;51.136;16.886;2024-01-30T05:39:06;-0.10;99.90
6956;DHT22;50345;51.136;16.886;2024-01-30T05:41:32;-0.10;99.90
6956;DHT22;50345;51.136;16.886;2024-01-30T05:43:58;-0.10;99.90
6956;DHT22;50345;51.136;16.886;2024-01-30T05:46:23;-0.10;99.90
6956;DHT22;50345;51.136;16.886;2024-01-30T05:48:49;-0.20;99.90
6956;DHT22;50345;51.136;16.886;2024-01-30T05:51:15;-0.20;99.90
6956;DHT22;50345;51.136;16.886;2024-01-30T05:53:40;-0.20;99.90
6956;DHT22;50345;51.136;16.886;2024-01-30T05:56:06;-0.30;99.90
6956;DHT22;50345;51.136;16.886;2024-01-30T05:58:32;-0.40;99.90
6956;DHT22;50345;51.136;16.886;2024-01-30T06:00:57;-0.40;99.90
6956;DHT22;50345;51.136;16.886;2024-01-30T06:03:23;-0.40;99.90
6956;DHT22;50345;51.136;16.886;2024-01-30T06:05:49;-0.40;99.90
6956;DHT22;50345;51.136;16.886;2024-01-30T06:08:14;-0.40;99.90
6956;DHT22;50345;51.136;16.886;2024-01-30T06:10:40;-0.50;99.90
6956;DHT22;50345;51.136;16.886;2024-01-30T06:13:06;-0.40;99.90
6956;DHT22;50345;51.136;16.886;2024-01-30T06:15:31;-0.40;99.90
6956;DHT22;50345;51.136;16.886;2024-01-30T06:17:58;-0.40;99.90
6956;DHT22;50345;51.136;16.886;2024-01-30T06:20:24;-0.40;99.90
6956;DHT22;50345;51.136;16.886;2024-01-30T06:22:49;-0.40;99.90
6956;DHT22;50345;51.136;16.886;2024-01-30T06:25:15;-0.40;99.90
6956;DHT22;50345;51.136;16.886;2024-01-30T06:27:42;-0.40;99.90
6956;DHT22;50345;51.136;16.886;2024-01-30T06:30:08;-0.40;99.90
6956;DHT22;50345;51.136;16.886;2024-01-30T06:32:34;-0.40;99.90
6956;DHT22;50345;51.136;16.886;2024-01-30T06:35:01;-0.40;99.90
6956;DHT22;50345;51.136;16.886;2024-01-30T06:37:27;-0.40;99.90
6956;DHT22;50345;51.136;16.886;2024-01-30T06:39:52;-0.30;99.90
6956;DHT22;50345;51.136;16.886;2024-01-30T06:42:18;-0.30;99.90
6956;DHT22;50345;51.136;16.886;2024-01-30T06:44:44;-0.40;99.90
6956;DHT22;50345;51.136;16.886;2024-01-30T06:47:10;-0.40;99.90
6956;DHT22;50345;51.136;16.886;2024-01-30T06:49:35;-0.50;99.90
6956;DHT22;50345;51.136;16.886;2024-01-30T06:52:05;-0.50;99.90
6956;DHT22;50345;51.136;16.886;2024-01-30T06:54:30;-0.40;99.90
6956;DHT22;50345;51.136;16.886;2024-01-30T06:56:56;-0.40;99.90
6956;DHT22;50345;51.136;16.886;2024-01-30T06:59:22;-0.30;99.90
6956;DHT22;50345;51.136;16.886;2024-01-30T07:01:48;-0.20;99.90
6956;DHT22;50345;51.136;16.886;2024-01-30T07:04:13;-0.10;99.90
6956;DHT22;50345;51.136;16.886;2024-01-30T07:06:39;-0.10;99.90
6956;DHT22;50345;51.136;16.886;2024-01-30T07:09:05;0.00;99.90
6956;DHT22;50345;51.136;16.886;2024-01-30T07:11:30;0.00;99.90
6956;DHT22;50345;51.136;16.886;2024-01-30T07:13:56;0.10;99.90
6956;DHT22;50345;51.136;16.886;2024-01-30T07:16:22;0.20;99.90
6956;DHT22;50345;51.136;16.886;2024-01-30T07:18:48;0.30;99.90
6956;DHT22;50345;51.136;16.886;2024-01-30T07:21:14;0.30;99.90
6956;DHT22;50345;51.136;16.886;2024-01-30T07:23:40;0.40;99.90
6956;DHT22;50345;51.136;16.886;2024-01-30T07:26:07;0.50;99.90
6956;DHT22;50345;51.136;16.886;2024-01-30T07:28:34;0.60;99.90
6956;DHT22;50345;51.136;16.886;2024-01-30T07:31:00;0.80;99.90
6956;DHT22;50345;51.136;16.886;2024-01-30T07:33:26;0.90;99.90
6956;DHT22;50345;51.136;16.886;2024-01-30T07:35:53;1.00;99.90
6956;DHT22;50345;51.136;16.886;2024-01-30T07:38:19;1.00;99.90
6956;DHT22;50345;51.136;16.886;2024-01-30T07:40:44;1.00;99.90
6956;DHT22;50345;51.136;16.886;2024-01-30T07:43:10;1.10;99.90
6956;DHT22;50345;51.136;16.886;2024-01-30T07:45:36;1.20;99.90
6956;DHT22;50345;51.136;16.886;2024-01-30T07:48:05;1.30;99.90
6956;DHT22;50345;51.136;16.886;2024-01-30T07:50:30;1.30;99.90
6956;DHT22;50345;51.136;16.886;2024-01-30T07:52:56;1.40;99.90
6956;DHT22;50345;51.136;16.886;2024-01-30T07:55:22;1.50;99.90
6956;DHT22;50345;51.136;16.886;2024-01-30T07:57:54;1.70;99.90
6956;DHT22;50345;51.136;16.886;2024-01-30T08:00:21;1.80;99.90
6956;DHT22;50345;51.136;16.886;2024-01-30T08:02:46;1.90;99.90
6956;DHT22;50345;51.136;16.886;2024-01-30T08:05:12;2.00;99.90
6956;DHT22;50345;51.136;16.886;2024-01-30T08:07:39;2.10;99.90
6956;DHT22;50345;51.136;16.886;2024-01-30T08:10:06;2.30;99.90
6956;DHT22;50345;51.136;16.886;2024-01-30T08:12:31;2.40;99.90
6956;DHT22;50345;51.136;16.886;2024-01-30T08:14:57;2.60;99.90
6956;DHT22;50345;51.136;16.886;2024-01-30T08:17:22;2.70;99.90
6956;DHT22;50345;51.136;16.886;2024-01-30T08:19:48;2.90;99.90
6956;DHT22;50345;51.136;16.886;2024-01-30T08:22:13;3.00;99.90
6956;DHT22;50345;51.136;16.886;2024-01-30T08:24:40;3.20;99.90
6956;DHT22;50345;51.136;16.886;2024-01-30T08:27:06;3.40;99.90
6956;DHT22;50345;51.136;16.886;2024-01-30T08:29:35;3.60;99.90
6956;DHT22;50345;51.136;16.886;2024-01-30T08:32:00;3.90;99.90
6956;DHT22;50345;51.136;16.886;2024-01-30T08:34:26;4.10;99.90
6956;DHT22;50345;51.136;16.886;2024-01-30T08:36:52;4.30;99.90
6956;DHT22;50345;51.136;16.886;2024-01-30T08:39:18;4.60;99.90
6956;DHT22;50345;51.136;16.886;2024-01-30T08:41:44;4.80;99.90
6956;DHT22;50345;51.136;16.886;2024-01-30T08:44:10;5.10;99.90
6956;DHT22;50345;51.136;16.886;2024-01-30T08:46:36;5.30;99.90
6956;DHT22;50345;51.136;16.886;2024-01-30T08:49:02;5.70;99.90
6956;DHT22;50345;51.136;16.886;2024-01-30T08:51:29;6.00;99.90
6956;DHT22;50345;51.136;16.886;2024-01-30T08:53:55;6.20;99.90
6956;DHT22;50345;51.136;16.886;2024-01-30T08:56:21;6.60;99.90
6956;DHT22;50345;51.136;16.886;2024-01-30T08:58:46;6.90;99.90
6956;DHT22;50345;51.136;16.886;2024-01-30T09:01:14;7.20;99.90
6956;DHT22;50345;51.136;16.886;2024-01-30T09:03:40;7.40;99.90
6956;DHT22;50345;51.136;16.886;2024-01-30T09:06:10;7.60;99.90
6956;DHT22;50345;51.136;16.886;2024-01-30T09:08:36;7.80;99.90
6956;DHT22;50345;51.136;16.886;2024-01-30T09:11:08;8.00;99.90
6956;DHT22;50345;51.136;16.886;2024-01-30T09:13:33;8.30;99.90
6956;DHT22;50345;51.136;16.886;2024-01-30T09:15:59;8.70;99.90
6956;DHT22;50345;51.136;16.886;2024-01-30T09:18:24;8.80;99.90
6956;DHT22;50345;51.136;16.886;2024-01-30T09:20:50;9.20;99.90
6956;DHT22;50345;51.136;16.886;2024-01-30T09:23:15;9.60;98.50
6956;DHT22;50345;51.136;16.886;2024-01-30T09:25:42;9.90;96.80
6956;DHT22;50345;51.136;16.886;2024-01-30T09:28:08;10.40;94.20
6956;DHT22;50345;51.136;16.886;2024-01-30T09:30:34;11.00;92.80
6956;DHT22;50345;51.136;16.886;2024-01-30T09:32:59;11.40;90.60
6956;DHT22;50345;51.136;16.886;2024-01-30T09:35:25;11.90;85.30
6956;DHT22;50345;51.136;16.886;2024-01-30T09:37:50;12.30;79.70
6956;DHT22;50345;51.136;16.886;2024-01-30T09:40:18;12.70;75.10
6956;DHT22;50345;51.136;16.886;2024-01-30T09:42:46;13.00;72.90
6956;DHT22;50345;51.136;16.886;2024-01-30T09:45:14;13.30;71.40
6956;DHT22;50345;51.136;16.886;2024-01-30T09:47:43;13.60;69.80
6956;DHT22;50345;51.136;16.886;2024-01-30T09:50:11;13.90;65.80
6956;DHT22;50345;51.136;16.886;2024-01-30T09:52:37;14.00;64.60
6956;DHT22;50345;51.136;16.886;2024-01-30T09:55:04;14.10;62.90
6956;DHT22;50345;51.136;16.886;2024-01-30T09:57:30;14.20;62.10
6956;DHT22;50345;51.136;16.886;2024-01-30T09:59:55;14.30;59.80
6956;DHT22;50345;51.136;16.886;2024-01-30T10:02:21;14.50;58.50
6956;DHT22;50345;51.136;16.886;2024-01-30T10:04:51;14.80;56.70
6956;DHT22;50345;51.136;16.886;2024-01-30T10:07:18;15.10;55.70
6956;DHT22;50345;51.136;16.886;2024-01-30T10:09:44;15.30;53.90
6956;DHT22;50345;51.136;16.886;2024-01-30T10:12:10;15.50;52.80
6956;DHT22;50345;51.136;16.886;2024-01-30T10:14:39;15.70;52.50
6956;DHT22;50345;51.136;16.886;2024-01-30T10:17:07;16.00;51.50
6956;DHT22;50345;51.136;16.886;2024-01-30T10:19:32;16.20;50.10
6956;DHT22;50345;51.136;16.886;2024-01-30T10:22:00;16.40;49.70
6956;DHT22;50345;51.136;16.886;2024-01-30T10:24:26;16.60;49.10
6956;DHT22;50345;51.136;16.886;2024-01-30T10:26:53;16.80;48.90
6956;DHT22;50345;51.136;16.886;2024-01-30T10:29:18;17.00;48.00
6956;DHT22;50345;51.136;16.886;2024-01-30T10:31:44;16.90;46.90
6956;DHT22;50345;51.136;16.886;2024-01-30T10:34:09;16.90;46.90
6956;DHT22;50345;51.136;16.886;2024-01-30T10:36:43;16.90;46.90
6956;DHT22;50345;51.136;16.886;2024-01-30T10:39:13;17.00;46.30
6956;DHT22;50345;51.136;16.886;2024-01-30T10:41:44;17.20;45.00
6956;DHT22;50345;51.136;16.886;2024-01-30T10:44:11;17.50;44.80
6956;DHT22;50345;51.136;16.886;2024-01-30T10:46:42;17.70;43.30
6956;DHT22;50345;51.136;16.886;2024-01-30T10:49:11;17.70;43.00
6956;DHT22;50345;51.136;16.886;2024-01-30T10:51:39;17.60;43.90
6956;DHT22;50345;51.136;16.886;2024-01-30T10:54:06;17.60;42.80
6956;DHT22;50345;51.136;16.886;2024-01-30T10:56:32;17.50;42.20
6956;DHT22;50345;51.136;16.886;2024-01-30T10:58:59;17.30;42.50
6956;DHT22;50345;51.136;16.886;2024-01-30T11:01:25;17.50;42.50
6956;DHT22;50345;51.136;16.886;2024-01-30T11:03:53;17.60;42.40
6956;DHT22;50345;51.136;16.886;2024-01-30T11:06:22;17.60;41.50
6956;DHT22;50345;51.136;16.886;2024-01-30T11:09:03;17.70;41.00
6956;DHT22;50345;51.136;16.886;2024-01-30T11:11:29;17.60;41.20
6956;DHT22;50345;51.136;16.886;2024-01-30T11:13:55;17.70;40.70
6956;DHT22;50345;51.136;16.886;2024-01-30T11:16:21;17.70;41.00
6956;DHT22;50345;51.136;16.886;2024-01-30T11:18:50;17.80;40.20
6956;DHT22;50345;51.136;16.886;2024-01-30T11:21:19;17.90;40.80
6956;DHT22;50345;51.136;16.886;2024-01-30T11:23:44;17.90;40.60
6956;DHT22;50345;51.136;16.886;2024-01-30T11:26:10;17.80;40.10
6956;DHT22;50345;51.136;16.886;2024-01-30T11:28:37;17.70;40.10
6956;DHT22;50345;51.136;16.886;2024-01-30T11:31:07;17.70;39.90
6956;DHT22;50345;51.136;16.886;2024-01-30T11:33:33;17.70;39.70
6956;DHT22;50345;51.136;16.886;2024-01-30T11:36:00;17.70;40.00
6956;DHT22;50345;51.136;16.886;2024-01-30T11:38:26;17.70;39.70
6956;DHT22;50345;51.136;16.886;2024-01-30T11:40:55;17.80;40.00
6956;DHT22;50345;51.136;16.886;2024-01-30T11:43:24;17.90;39.70
6956;DHT22;50345;51.136;16.886;2024-01-30T11:45:50;17.70;39.00
6956;DHT22;50345;51.136;16.886;2024-01-30T11:48:16;17.60;39.70
6956;DHT22;50345;51.136;16.886;2024-01-30T11:50:43;17.80;39.00
6956;DHT22;50345;51.136;16.886;2024-01-30T11:53:10;18.00;39.10
6956;DHT22;50345;51.136;16.886;2024-01-30T11:55:36;18.00;38.80
6956;DHT22;50345;51.136;16.886;2024-01-30T11:58:03;17.90;38.70
6956;DHT22;50345;51.136;16.886;2024-01-30T12:00:29;17.70;38.60
6956;DHT22;50345;51.136;16.886;2024-01-30T12:02:56;17.60;38.80
6956;DHT22;50345;51.136;16.886;2024-01-30T12:05:23;17.30;39.30
6956;DHT22;50345;51.136;16.886;2024-01-30T12:07:49;17.30;39.60
6956;DHT22;50345;51.136;16.886;2024-01-30T12:10:15;17.10;39.40
6956;DHT22;50345;51.136;16.886;2024-01-30T12:12:47;16.90;39.90
6956;DHT22;50345;51.136;16.886;2024-01-30T12:15:13;16.40;40.60
6956;DHT22;50345;51.136;16.886;2024-01-30T12:17:39;16.10;41.60
6956;DHT22;50345;51.136;16.886;2024-01-30T12:20:06;15.50;42.20
6956;DHT22;50345;51.136;16.886;2024-01-30T12:22:36;15.10;43.20
6956;DHT22;50345;51.136;16.886;2024-01-30T12:25:08;14.90;43.30
6956;DHT22;50345;51.136;16.886;2024-01-30T12:27:34;14.60;43.80
6956;DHT22;50345;51.136;16.886;2024-01-30T12:30:00;14.20;44.30
6956;DHT22;50345;51.136;16.886;2024-01-30T12:32:25;13.90;44.90
6956;DHT22;50345;51.136;16.886;2024-01-30T12:34:55;13.70;45.60
6956;DHT22;50345;51.136;16.886;2024-01-30T12:37:21;13.70;46.10
6956;DHT22;50345;51.136;16.886;2024-01-30T12:39:48;13.70;46.40
6956;DHT22;50345;51.136;16.886;2024-01-30T12:42:14;13.70;46.10
6956;DHT22;50345;51.136;16.886;2024-01-30T12:44:40;13.90;46.20
6956;DHT22;50345;51.136;16.886;2024-01-30T12:47:08;14.10;46.00
6956;DHT22;50345;51.136;16.886;2024-01-30T12:49:34;14.30;45.70
6956;DHT22;50345;51.136;16.886;2024-01-30T12:52:00;14.50;45.70
6956;DHT22;50345;51.136;16.886;2024-01-30T12:54:25;14.90;45.90
6956;DHT22;50345;51.136;16.886;2024-01-30T12:56:51;15.40;45.20
6956;DHT22;50345;51.136;16.886;2024-01-30T12:59:17;15.90;44.80
6956;DHT22;50345;51.136;16.886;2024-01-30T13:01:43;16.30;44.20
6956;DHT22;50345;51.136;16.886;2024-01-30T13:04:08;16.80;42.90
6956;DHT22;50345;51.136;16.886;2024-01-30T13:06:34;17.20;42.40
6956;DHT22;50345;51.136;16.886;2024-01-30T13:08:59;17.40;41.70
6956;DHT22;50345;51.136;16.886;2024-01-30T13:11:25;17.50;41.50
6956;DHT22;50345;51.136;16.886;2024-01-30T13:13:51;17.60;41.80
6956;DHT22;50345;51.136;16.886;2024-01-30T13:16:17;17.80;41.40
6956;DHT22;50345;51.136;16.886;2024-01-30T13:18:43;17.70;41.50
6956;DHT22;50345;51.136;16.886;2024-01-30T13:21:09;17.50;41.40
6956;DHT22;50345;51.136;16.886;2024-01-30T13:23:35;17.20;41.60
6956;DHT22;50345;51.136;16.886;2024-01-30T13:26:00;16.90;42.20
6956;DHT22;50345;51.136;16.886;2024-01-30T13:28:26;16.80;42.80
6956;DHT22;50345;51.136;16.886;2024-01-30T13:30:52;16.90;42.80
6956;DHT22;50345;51.136;16.886;2024-01-30T13:33:17;17.10;42.00
6956;DHT22;50345;51.136;16.886;2024-01-30T13:35:43;17.10;41.70
6956;DHT22;50345;51.136;16.886;2024-01-30T13:38:09;16.90;41.70
6956;DHT22;50345;51.136;16.886;2024-01-30T13:40:34;16.50;41.80
6956;DHT22;50345;51.136;16.886;2024-01-30T13:43:00;16.00;42.90
6956;DHT22;50345;51.136;16.886;2024-01-30T13:45:25;15.70;44.50
6956;DHT22;50345;51.136;16.886;2024-01-30T13:47:51;15.30;45.70
6956;DHT22;50345;51.136;16.886;2024-01-30T13:50:16;15.00;46.80
6956;DHT22;50345;51.136;16.886;2024-01-30T13:52:43;14.70;47.60
6956;DHT22;50345;51.136;16.886;2024-01-30T13:55:09;14.50;48.30
6956;DHT22;50345;51.136;16.886;2024-01-30T13:57:36;14.50;48.50
6956;DHT22;50345;51.136;16.886;2024-01-30T14:00:03;14.60;48.60
6956;DHT22;50345;51.136;16.886;2024-01-30T14:02:31;14.60;48.40
6956;DHT22;50345;51.136;16.886;2024-01-30T14:04:56;14.50;48.50
6956;DHT22;50345;51.136;16.886;2024-01-30T14:07:22;14.30;48.90
6956;DHT22;50345;51.136;16.886;2024-01-30T14:09:48;14.00;49.40
6956;DHT22;50345;51.136;16.886;2024-01-30T14:12:14;13.70;49.80
6956;DHT22;50345;51.136;16.886;2024-01-30T14:14:40;13.50;50.30
6956;DHT22;50345;51.136;16.886;2024-01-30T14:17:06;13.40;51.00
6956;DHT22;50345;51.136;16.886;2024-01-30T14:19:35;13.10;51.30
6956;DHT22;50345;51.136;16.886;2024-01-30T14:22:01;12.90;51.60
6956;DHT22;50345;51.136;16.886;2024-01-30T14:24:27;12.60;52.20
6956;DHT22;50345;51.136;16.886;2024-01-30T14:26:53;12.50;52.80
6956;DHT22;50345;51.136;16.886;2024-01-30T14:29:18;12.30;53.20
6956;DHT22;50345;51.136;16.886;2024-01-30T14:31:44;12.20;53.80
6956;DHT22;50345;51.136;16.886;2024-01-30T14:34:10;12.10;54.40
6956;DHT22;50345;51.136;16.886;2024-01-30T14:36:37;11.90;54.90
6956;DHT22;50345;51.136;16.886;2024-01-30T14:39:03;11.90;55.10
6956;DHT22;50345;51.136;16.886;2024-01-30T14:41:29;11.90;55.20
6956;DHT22;50345;51.136;16.886;2024-01-30T14:43:54;11.80;55.30
6956;DHT22;50345;51.136;16.886;2024-01-30T14:46:21;11.70;55.60
6956;DHT22;50345;51.136;16.886;2024-01-30T14:48:47;11.60;55.90
6956;DHT22;50345;51.136;16.886;2024-01-30T14:51:13;11.60;56.10
6956;DHT22;50345;51.136;16.886;2024-01-30T14:53:39;11.60;56.50
6956;DHT22;50345;51.136;16.886;2024-01-30T14:56:05;11.50;56.70
6956;DHT22;50345;51.136;16.886;2024-01-30T14:58:31;11.40;57.00
6956;DHT22;50345;51.136;16.886;2024-01-30T15:00:57;11.30;57.30
6956;DHT22;50345;51.136;16.886;2024-01-30T15:03:22;11.20;57.80
6956;DHT22;50345;51.136;16.886;2024-01-30T15:05:48;11.10;58.10
6956;DHT22;50345;51.136;16.886;2024-01-30T15:08:14;11.00;58.60
6956;DHT22;50345;51.136;16.886;2024-01-30T15:10:39;10.90;59.10
6956;DHT22;50345;51.136;16.886;2024-01-30T15:13:05;10.80;59.30
6956;DHT22;50345;51.136;16.886;2024-01-30T15:15:30;10.70;59.80
6956;DHT22;50345;51.136;16.886;2024-01-30T15:17:56;10.50;61.20
6956;DHT22;50345;51.136;16.886;2024-01-30T15:20:23;10.40;61.20
6956;DHT22;50345;51.136;16.886;2024-01-30T15:22:49;10.30;61.70
6956;DHT22;50345;51.136;16.886;2024-01-30T15:25:14;10.20;62.10
6956;DHT22;50345;51.136;16.886;2024-01-30T15:27:40;10.10;62.40
6956;DHT22;50345;51.136;16.886;2024-01-30T15:30:06;10.00;63.10